Big Rapids, MI (49307)

6:19 PM EDT on August 29, 2015 (GMT -0400)
Big Rapids East | | Change Station
CLOSE
Current Station
Personal Weather Station
Location: Big Rapids, MI
Elevation: 1089 ft
Nearby Weather Stations

Elev 1089 ft 43.70 °N, 85.40 °W | Updated 8 seconds ago

Overcast
Overcast
66.2 °F
Feels Like 66.2 °F
N
0.0
Wind Variable Wind from South
Gusts 0.0 mph

Today
High -- | Low -- °F
--% Chance of Precip.
Yesterday
High -- | Low -- °F
Precip. -- in
7:01 AM 8:23 PM
Full, 100% visible
Pressure 30.06 in
Visibility 10.0 miles
Clouds Scattered Clouds 1500 ft
Mostly Cloudy 3600 ft
Overcast 4200 ft
Dew Point 63 °F
Humidity 89%
Rainfall 0.12 in
Snow Depth Not available.
UV 1 out of 12
Pollen 9.00 out of 12
Air Quality Not available.
Flu Activity Not available.
METAR KRQB 292214Z AUTO 12004KT 10SM SCT015 BKN036 OVC042 19/17 A3006 RMK AO2 T01920166
Pressure 30.06 in
Visibility 10.0 miles
Clouds Scattered Clouds 1500 ft
Mostly Cloudy 3600 ft
Overcast 4200 ft
Dew Point 63 °F
Humidity 89%
Rainfall 0.12 in
Snow Depth Not available.
UV 1 out of 12
Pollen 9.00 out of 12
Air Quality Not available.
Flu Activity Not available.
METAR KRQB 292214Z AUTO 12004KT 10SM SCT015 BKN036 OVC042 19/17 A3006 RMK AO2 T01920166

10-Day Weather Forecast

×

Almanac

Astronomy

Aug. 29, 2015 Rise Set
Actual Time
Civil Twilight
Nautical Twilight
Astronomical Twilight
Moon
Length of Visible Light
Length of Day
Tomorrow will be .
, % of the Moon is Illuminated

Today's Extremes

State Highs State Lows

Community

WunderPhotos

Upload Photos

1,850,786 photos uploaded!

WunderBlogs® & News

Nearby

Air Quality

  Air Quality AQ Index Pollutant
Not available.

Snow Depth

Station Depth Elevation

Earthquake Activity

City Distance Mag. Time & Date
Minimum magnitude displayed is 2.5.

Coastal Water Temperatures

Place Temperature

Stations

Nearby Weather Stations

Station Location Temp. Windchill Dew Point Humidity Wind Precip. Elev Updated Type